Главная страница
METAR-TAF:

METAR-TAF

Аэропорты :

Orange County Airport

Монтгомери, Нью-Йорк, США

широта: 41-30-33N, долгота: 074-15-54W, высота над уровнем моря: 111 м

Текущие метеонаблюдения

Эта сводка был подготовлена 1 час и 2 минут назад, в 11:54 UTC
Ветер 3 Узел от южный-юго-западный
Температура 13°C
Влажность 72%
Давление 1025 hPa
Видимость: 16.1 км
Рассеянная облачность на высоте 11000 фута

METAR: KMGJ 161154Z AUTO 20003KT 10SM BKN110 13/08 A3026 RMK AO2 SLP245 T01330083 10133 20072 51011

Время: 08:56 (12:56 UTC)


TAF: отсутствует

Метеонаблюдения и прогнозы для более 4000 аэропортов (сводки METAR и TAF).

Имеющиеся станции представлены на карте желтыми и красными точками.

Чтобы увидеть название станции, наведите на нее мышь.

Затем щелкните, чтобы увидеть метеонаблюдения и метеопрогнозы.

Управление картой: чтобы увеличить масштаб, щелкните зеленые кнопки с черным крестиком; чтобы уменьшить масштаб, щелкните зеленую кнопку с тире; для просмотра соседних карт щелкайте зеленые стрелки.


METAR-TAF: